Time;durP1;ratioP1;P1;durP2;ratioP2;P2;SDS_P1;SDS_P2;PMS_P1;PMS_P2;Temp;Humidity;BMP_temperature;BMP_pressure;BME280_temperature;BME280_humidity;BME280_pressure;Samples;Min_cycle;Max_cycle;Signal;HPM_P1;HPM_P2
2020/10/20 00:00:37;;;;;;;37.65;21.55;;;;;;;2.64;71.05664;95426.09;;;;
2020/10/20 00:01:38;;;;;;;37.65;21.55;;;;;;;2.64;71.05664;95426.09;;;;
2020/10/20 00:02:38;;;;;;;37.65;21.55;;;;;;;2.64;71.05664;95426.09;;;;
2020/10/20 00:03:39;;;;;;;37.65;21.55;;;;;;;2.64;71.05664;95426.09;;;;
2020/10/20 00:04:40;;;;;;;37.65;21.55;;;;;;;2.64;71.05664;95426.09;;;;
2020/10/20 00:05:40;;;;;;;37.65;21.55;;;;;;;2.64;71.05664;95426.09;;;;
2020/10/20 00:06:42;;;;;;;37.65;21.55;;;;;;;2.64;71.05664;95426.09;;;;
2020/10/20 00:07:42;;;;;;;37.65;21.55;;;;;;;2.64;71.05664;95426.09;;;;
2020/10/20 00:08:43;;;;;;;34.95;20.25;;;;;;;2.55;71.24219;95419.2;;;;
2020/10/20 00:09:43;;;;;;;34.95;20.25;;;;;;;2.55;71.24219;95419.2;;;;
2020/10/20 00:10:44;;;;;;;34.95;20.25;;;;;;;2.55;71.24219;95419.2;;;;
2020/10/20 00:11:45;;;;;;;34.95;20.25;;;;;;;2.55;71.24219;95419.2;;;;
2020/10/20 00:12:45;;;;;;;34.95;20.25;;;;;;;2.55;71.24219;95419.2;;;;
2020/10/20 00:13:46;;;;;;;34.95;20.25;;;;;;;2.55;71.24219;95419.2;;;;
2020/10/20 00:14:46;;;;;;;34.95;20.25;;;;;;;2.55;71.24219;95419.2;;;;
2020/10/20 00:15:47;;;;;;;34.95;20.25;;;;;;;2.55;71.24219;95419.2;;;;
2020/10/20 00:16:48;;;;;;;34.95;20.25;;;;;;;2.55;71.24219;95419.2;;;;
2020/10/20 00:17:48;;;;;;;34.95;20.25;;;;;;;2.55;71.24219;95419.2;;;;
2020/10/20 00:18:49;;;;;;;33.14999;19.5;;;;;;;2.51;71.55859;95408.69;;;;
2020/10/20 00:19:49;;;;;;;33.14999;19.5;;;;;;;2.51;71.55859;95408.69;;;;
2020/10/20 00:20:50;;;;;;;33.14999;19.5;;;;;;;2.51;71.55859;95408.69;;;;
2020/10/20 00:21:50;;;;;;;33.14999;19.5;;;;;;;2.51;71.55859;95408.69;;;;
2020/10/20 00:22:51;;;;;;;33.14999;19.5;;;;;;;2.51;71.55859;95408.69;;;;
2020/10/20 00:23:51;;;;;;;33.14999;19.5;;;;;;;2.51;71.55859;95408.69;;;;
2020/10/20 00:24:52;;;;;;;33.14999;19.5;;;;;;;2.51;71.55859;95408.69;;;;
2020/10/20 00:25:52;;;;;;;33.14999;19.5;;;;;;;2.51;71.55859;95408.69;;;;
2020/10/20 00:26:53;;;;;;;33.14999;19.5;;;;;;;2.51;71.55859;95408.69;;;;
2020/10/20 00:27:54;;;;;;;33.14999;19.5;;;;;;;2.51;71.55859;95408.69;;;;
2020/10/20 00:28:54;;;;;;;33.14999;19.5;;;;;;;2.51;71.55859;95408.69;;;;
2020/10/20 00:29:55;;;;;;;33.35;19.3;;;;;;;2.36;71.80859;95395.36;;;;
2020/10/20 00:30:55;;;;;;;33.35;19.3;;;;;;;2.36;71.80859;95395.36;;;;
2020/10/20 00:31:56;;;;;;;33.35;19.3;;;;;;;2.36;71.80859;95395.36;;;;
2020/10/20 00:32:56;;;;;;;33.35;19.3;;;;;;;2.36;71.80859;95395.36;;;;
2020/10/20 00:33:57;;;;;;;33.35;19.3;;;;;;;2.36;71.80859;95395.36;;;;
2020/10/20 00:34:57;;;;;;;33.35;19.3;;;;;;;2.36;71.80859;95395.36;;;;
2020/10/20 00:35:58;;;;;;;33.35;19.3;;;;;;;2.36;71.80859;95395.36;;;;
2020/10/20 00:36:58;;;;;;;33.35;19.3;;;;;;;2.36;71.80859;95395.36;;;;
2020/10/20 00:37:59;;;;;;;33.35;19.3;;;;;;;2.36;71.80859;95395.36;;;;
2020/10/20 00:38:59;;;;;;;33.35;19.3;;;;;;;2.36;71.80859;95395.36;;;;
2020/10/20 00:40:00;;;;;;;33.35;19.3;;;;;;;2.36;71.80859;95395.36;;;;
2020/10/20 00:41:00;;;;;;;33.75;19.45;;;;;;;2.3;71.95508;95381.95;;;;
2020/10/20 00:42:01;;;;;;;33.75;19.45;;;;;;;2.3;71.95508;95381.95;;;;
2020/10/20 00:43:02;;;;;;;33.75;19.45;;;;;;;2.3;71.95508;95381.95;;;;
2020/10/20 00:44:03;;;;;;;33.75;19.45;;;;;;;2.3;71.95508;95381.95;;;;
2020/10/20 00:45:04;;;;;;;33.75;19.45;;;;;;;2.3;71.95508;95381.95;;;;
2020/10/20 00:46:09;;;;;;;33.75;19.45;;;;;;;2.3;71.95508;95381.95;;;;
2020/10/20 00:47:14;;;;;;;33.75;19.45;;;;;;;2.3;71.95508;95381.95;;;;
2020/10/20 00:48:15;;;;;;;33.75;19.45;;;;;;;2.3;71.95508;95381.95;;;;
2020/10/20 00:49:16;;;;;;;33.75;19.45;;;;;;;2.3;71.95508;95381.95;;;;
2020/10/20 00:50:17;;;;;;;33.75;19.45;;;;;;;2.3;71.95508;95381.95;;;;
2020/10/20 00:51:19;;;;;;;35;19.4;;;;;;;2.16;72.15332;95367.22;;;;
2020/10/20 00:52:24;;;;;;;35;19.4;;;;;;;2.16;72.15332;95367.22;;;;
2020/10/20 00:53:24;;;;;;;35;19.4;;;;;;;2.16;72.15332;95367.22;;;;
2020/10/20 00:54:25;;;;;;;35;19.4;;;;;;;2.16;72.15332;95367.22;;;;
2020/10/20 00:55:26;;;;;;;35;19.4;;;;;;;2.16;72.15332;95367.22;;;;
2020/10/20 00:56:30;;;;;;;35;19.4;;;;;;;2.16;72.15332;95367.22;;;;
2020/10/20 00:57:36;;;;;;;35;19.4;;;;;;;2.16;72.15332;95367.22;;;;
2020/10/20 00:58:37;;;;;;;35;19.4;;;;;;;2.16;72.15332;95367.22;;;;
2020/10/20 00:59:41;;;;;;;35;19.4;;;;;;;2.16;72.15332;95367.22;;;;
2020/10/20 01:00:42;;;;;;;35;19.4;;;;;;;2.16;72.15332;95367.22;;;;
2020/10/20 01:01:43;;;;;;;32.6;17.95;;;;;;;2.09;72.38184;95353.78;;;;
2020/10/20 01:02:47;;;;;;;32.6;17.95;;;;;;;2.09;72.38184;95353.78;;;;
2020/10/20 01:03:48;;;;;;;32.6;17.95;;;;;;;2.09;72.38184;95353.78;;;;
2020/10/20 01:04:48;;;;;;;32.6;17.95;;;;;;;2.09;72.38184;95353.78;;;;
2020/10/20 01:05:50;;;;;;;32.6;17.95;;;;;;;2.09;72.38184;95353.78;;;;
2020/10/20 01:06:52;;;;;;;32.6;17.95;;;;;;;2.09;72.38184;95353.78;;;;
2020/10/20 01:07:53;;;;;;;32.6;17.95;;;;;;;2.09;72.38184;95353.78;;;;
2020/10/20 01:08:57;;;;;;;32.6;17.95;;;;;;;2.09;72.38184;95353.78;;;;
2020/10/20 01:09:58;;;;;;;32.6;17.95;;;;;;;2.09;72.38184;95353.78;;;;
2020/10/20 01:10:58;;;;;;;32.6;17.95;;;;;;;2.09;72.38184;95353.78;;;;
2020/10/20 01:11:59;;;;;;;32.6;17.95;;;;;;;2.09;72.38184;95353.78;;;;
2020/10/20 01:13:00;;;;;;;30.1;16;;;;;;;1.99;72.59863;95350.99;;;;
2020/10/20 01:14:00;;;;;;;30.1;16;;;;;;;1.99;72.59863;95350.99;;;;
2020/10/20 01:15:01;;;;;;;30.1;16;;;;;;;1.99;72.59863;95350.99;;;;
2020/10/20 01:16:02;;;;;;;30.1;16;;;;;;;1.99;72.59863;95350.99;;;;
2020/10/20 01:17:02;;;;;;;30.1;16;;;;;;;1.99;72.59863;95350.99;;;;
2020/10/20 01:18:03;;;;;;;30.1;16;;;;;;;1.99;72.59863;95350.99;;;;
2020/10/20 01:19:04;;;;;;;30.1;16;;;;;;;1.99;72.59863;95350.99;;;;
2020/10/20 01:20:06;;;;;;;30.1;16;;;;;;;1.99;72.59863;95350.99;;;;
2020/10/20 01:21:06;;;;;;;30.1;16;;;;;;;1.99;72.59863;95350.99;;;;
2020/10/20 01:22:07;;;;;;;30.1;16;;;;;;;1.99;72.59863;95350.99;;;;
2020/10/20 01:23:17;;;;;;;26.9;15.25;;;;;;;1.95;72.83203;95336.88;;;;
2020/10/20 01:24:19;;;;;;;26.9;15.25;;;;;;;1.95;72.83203;95336.88;;;;
2020/10/20 01:25:20;;;;;;;26.9;15.25;;;;;;;1.95;72.83203;95336.88;;;;
2020/10/20 01:26:21;;;;;;;26.9;15.25;;;;;;;1.95;72.83203;95336.88;;;;
2020/10/20 01:27:24;;;;;;;26.9;15.25;;;;;;;1.95;72.83203;95336.88;;;;
2020/10/20 01:28:26;;;;;;;26.9;15.25;;;;;;;1.95;72.83203;95336.88;;;;
2020/10/20 01:29:27;;;;;;;26.9;15.25;;;;;;;1.95;72.83203;95336.88;;;;
2020/10/20 01:30:27;;;;;;;26.9;15.25;;;;;;;1.95;72.83203;95336.88;;;;
2020/10/20 01:31:28;;;;;;;26.9;15.25;;;;;;;1.95;72.83203;95336.88;;;;
2020/10/20 01:32:29;;;;;;;26.9;15.25;;;;;;;1.95;72.83203;95336.88;;;;
2020/10/20 01:33:29;;;;;;;25.25;15.4;;;;;;;1.81;73.04883;95331.45;;;;
2020/10/20 01:34:30;;;;;;;25.25;15.4;;;;;;;1.81;73.04883;95331.45;;;;
2020/10/20 01:35:30;;;;;;;25.25;15.4;;;;;;;1.81;73.04883;95331.45;;;;
2020/10/20 01:36:31;;;;;;;25.25;15.4;;;;;;;1.81;73.04883;95331.45;;;;
2020/10/20 01:37:32;;;;;;;25.25;15.4;;;;;;;1.81;73.04883;95331.45;;;;
2020/10/20 01:38:32;;;;;;;25.25;15.4;;;;;;;1.81;73.04883;95331.45;;;;
2020/10/20 01:39:33;;;;;;;25.25;15.4;;;;;;;1.81;73.04883;95331.45;;;;
2020/10/20 01:40:34;;;;;;;25.25;15.4;;;;;;;1.81;73.04883;95331.45;;;;
2020/10/20 01:41:34;;;;;;;25.25;15.4;;;;;;;1.81;73.04883;95331.45;;;;
2020/10/20 01:42:35;;;;;;;25.25;15.4;;;;;;;1.81;73.04883;95331.45;;;;
2020/10/20 01:43:35;;;;;;;25.25;15.4;;;;;;;1.81;73.04883;95331.45;;;;
2020/10/20 01:44:36;;;;;;;24.1;14.85;;;;;;;1.72;73.24219;95313.49;;;;
2020/10/20 01:45:36;;;;;;;24.1;14.85;;;;;;;1.72;73.24219;95313.49;;;;
2020/10/20 01:46:37;;;;;;;24.1;14.85;;;;;;;1.72;73.24219;95313.49;;;;
2020/10/20 01:47:37;;;;;;;24.1;14.85;;;;;;;1.72;73.24219;95313.49;;;;
2020/10/20 01:48:38;;;;;;;24.1;14.85;;;;;;;1.72;73.24219;95313.49;;;;
2020/10/20 01:49:38;;;;;;;24.1;14.85;;;;;;;1.72;73.24219;95313.49;;;;
2020/10/20 01:50:39;;;;;;;24.1;14.85;;;;;;;1.72;73.24219;95313.49;;;;
2020/10/20 01:51:40;;;;;;;24.1;14.85;;;;;;;1.72;73.24219;95313.49;;;;
2020/10/20 01:52:40;;;;;;;24.1;14.85;;;;;;;1.72;73.24219;95313.49;;;;
2020/10/20 01:53:41;;;;;;;24.1;14.85;;;;;;;1.72;73.24219;95313.49;;;;
2020/10/20 01:54:41;;;;;;;24.1;14.85;;;;;;;1.72;73.24219;95313.49;;;;
2020/10/20 01:55:42;;;;;;;23.7;14.2;;;;;;;1.61;73.41309;95309.94;;;;
2020/10/20 01:56:42;;;;;;;23.7;14.2;;;;;;;1.61;73.41309;95309.94;;;;
2020/10/20 01:57:43;;;;;;;23.7;14.2;;;;;;;1.61;73.41309;95309.94;;;;
2020/10/20 01:58:43;;;;;;;23.7;14.2;;;;;;;1.61;73.41309;95309.94;;;;
2020/10/20 01:59:44;;;;;;;23.7;14.2;;;;;;;1.61;73.41309;95309.94;;;;
2020/10/20 02:00:45;;;;;;;23.7;14.2;;;;;;;1.61;73.41309;95309.94;;;;
2020/10/20 02:01:45;;;;;;;23.7;14.2;;;;;;;1.61;73.41309;95309.94;;;;
2020/10/20 02:02:46;;;;;;;23.7;14.2;;;;;;;1.61;73.41309;95309.94;;;;
2020/10/20 02:03:46;;;;;;;23.7;14.2;;;;;;;1.61;73.41309;95309.94;;;;
2020/10/20 02:04:48;;;;;;;23.7;14.2;;;;;;;1.61;73.41309;95309.94;;;;
2020/10/20 02:05:48;;;;;;;21.85;13.3;;;;;;;1.61;73.7168;95309.44;;;;
2020/10/20 02:06:49;;;;;;;21.85;13.3;;;;;;;1.61;73.7168;95309.44;;;;
2020/10/20 02:07:49;;;;;;;21.85;13.3;;;;;;;1.61;73.7168;95309.44;;;;
2020/10/20 02:08:50;;;;;;;21.85;13.3;;;;;;;1.61;73.7168;95309.44;;;;
2020/10/20 02:09:50;;;;;;;21.85;13.3;;;;;;;1.61;73.7168;95309.44;;;;
2020/10/20 02:10:51;;;;;;;21.85;13.3;;;;;;;1.61;73.7168;95309.44;;;;
2020/10/20 02:11:52;;;;;;;21.85;13.3;;;;;;;1.61;73.7168;95309.44;;;;
2020/10/20 02:12:52;;;;;;;21.85;13.3;;;;;;;1.61;73.7168;95309.44;;;;
2020/10/20 02:13:53;;;;;;;21.85;13.3;;;;;;;1.61;73.7168;95309.44;;;;
2020/10/20 02:14:53;;;;;;;21.85;13.3;;;;;;;1.61;73.7168;95309.44;;;;
2020/10/20 02:15:54;;;;;;;21.85;13.3;;;;;;;1.61;73.7168;95309.44;;;;
2020/10/20 02:16:54;;;;;;;21.3;12.85;;;;;;;1.54;73.66211;95314.33;;;;
2020/10/20 02:17:55;;;;;;;21.3;12.85;;;;;;;1.54;73.66211;95314.33;;;;
2020/10/20 02:18:57;;;;;;;21.3;12.85;;;;;;;1.54;73.66211;95314.33;;;;
2020/10/20 02:19:57;;;;;;;21.3;12.85;;;;;;;1.54;73.66211;95314.33;;;;
2020/10/20 02:20:58;;;;;;;21.3;12.85;;;;;;;1.54;73.66211;95314.33;;;;
2020/10/20 02:21:58;;;;;;;21.3;12.85;;;;;;;1.54;73.66211;95314.33;;;;
2020/10/20 02:22:59;;;;;;;21.3;12.85;;;;;;;1.54;73.66211;95314.33;;;;
2020/10/20 02:23:59;;;;;;;21.3;12.85;;;;;;;1.54;73.66211;95314.33;;;;
2020/10/20 02:25:00;;;;;;;21.3;12.85;;;;;;;1.54;73.66211;95314.33;;;;
2020/10/20 02:26:01;;;;;;;21.3;12.85;;;;;;;1.54;73.66211;95314.33;;;;
2020/10/20 02:27:01;;;;;;;20.55;12.55;;;;;;;1.48;73.75586;95310.13;;;;
2020/10/20 02:28:02;;;;;;;20.55;12.55;;;;;;;1.48;73.75586;95310.13;;;;
2020/10/20 02:29:02;;;;;;;20.55;12.55;;;;;;;1.48;73.75586;95310.13;;;;
2020/10/20 02:30:03;;;;;;;20.55;12.55;;;;;;;1.48;73.75586;95310.13;;;;
2020/10/20 02:31:04;;;;;;;20.55;12.55;;;;;;;1.48;73.75586;95310.13;;;;
2020/10/20 02:32:05;;;;;;;20.55;12.55;;;;;;;1.48;73.75586;95310.13;;;;
2020/10/20 02:33:06;;;;;;;20.55;12.55;;;;;;;1.48;73.75586;95310.13;;;;
2020/10/20 02:34:06;;;;;;;20.55;12.55;;;;;;;1.48;73.75586;95310.13;;;;
2020/10/20 02:35:07;;;;;;;20.55;12.55;;;;;;;1.48;73.75586;95310.13;;;;
2020/10/20 02:36:07;;;;;;;20.55;12.55;;;;;;;1.48;73.75586;95310.13;;;;
2020/10/20 02:37:08;;;;;;;20.55;12.55;;;;;;;1.48;73.75586;95310.13;;;;
2020/10/20 02:38:09;;;;;;;18.7;11.6;;;;;;;1.33;73.91113;95300.78;;;;
2020/10/20 02:39:09;;;;;;;18.7;11.6;;;;;;;1.33;73.91113;95300.78;;;;
2020/10/20 02:40:10;;;;;;;18.7;11.6;;;;;;;1.33;73.91113;95300.78;;;;
2020/10/20 02:41:10;;;;;;;18.7;11.6;;;;;;;1.33;73.91113;95300.78;;;;
2020/10/20 02:42:12;;;;;;;18.7;11.6;;;;;;;1.33;73.91113;95300.78;;;;
2020/10/20 02:43:12;;;;;;;18.7;11.6;;;;;;;1.33;73.91113;95300.78;;;;
2020/10/20 02:44:14;;;;;;;18.7;11.6;;;;;;;1.33;73.91113;95300.78;;;;
2020/10/20 02:45:15;;;;;;;18.7;11.6;;;;;;;1.33;73.91113;95300.78;;;;
2020/10/20 02:46:15;;;;;;;18.7;11.6;;;;;;;1.33;73.91113;95300.78;;;;
2020/10/20 02:47:16;;;;;;;18.7;11.6;;;;;;;1.33;73.91113;95300.78;;;;
2020/10/20 02:48:16;;;;;;;20.1;11.8;;;;;;;1.27;74.13867;95290.95;;;;
2020/10/20 02:49:17;;;;;;;20.1;11.8;;;;;;;1.27;74.13867;95290.95;;;;
2020/10/20 02:50:18;;;;;;;20.1;11.8;;;;;;;1.27;74.13867;95290.95;;;;
2020/10/20 02:51:18;;;;;;;20.1;11.8;;;;;;;1.27;74.13867;95290.95;;;;
2020/10/20 02:52:19;;;;;;;20.1;11.8;;;;;;;1.27;74.13867;95290.95;;;;
2020/10/20 02:53:20;;;;;;;20.1;11.8;;;;;;;1.27;74.13867;95290.95;;;;
2020/10/20 02:54:20;;;;;;;20.1;11.8;;;;;;;1.27;74.13867;95290.95;;;;
2020/10/20 02:55:21;;;;;;;20.1;11.8;;;;;;;1.27;74.13867;95290.95;;;;
2020/10/20 02:56:21;;;;;;;20.1;11.8;;;;;;;1.27;74.13867;95290.95;;;;
2020/10/20 02:57:22;;;;;;;20.1;11.8;;;;;;;1.27;74.13867;95290.95;;;;
2020/10/20 02:58:22;;;;;;;20.1;11.8;;;;;;;1.27;74.13867;95290.95;;;;
2020/10/20 02:59:23;;;;;;;17.9;11.55;;;;;;;1.15;74.28711;95294.95;;;;
2020/10/20 03:00:23;;;;;;;17.9;11.55;;;;;;;1.15;74.28711;95294.95;;;;
2020/10/20 03:01:24;;;;;;;17.9;11.55;;;;;;;1.15;74.28711;95294.95;;;;
2020/10/20 03:02:24;;;;;;;17.9;11.55;;;;;;;1.15;74.28711;95294.95;;;;
2020/10/20 03:03:25;;;;;;;17.9;11.55;;;;;;;1.15;74.28711;95294.95;;;;
2020/10/20 03:04:26;;;;;;;17.9;11.55;;;;;;;1.15;74.28711;95294.95;;;;
2020/10/20 03:05:26;;;;;;;17.9;11.55;;;;;;;1.15;74.28711;95294.95;;;;
2020/10/20 03:06:27;;;;;;;17.9;11.55;;;;;;;1.15;74.28711;95294.95;;;;
2020/10/20 03:07:27;;;;;;;17.9;11.55;;;;;;;1.15;74.28711;95294.95;;;;
2020/10/20 03:08:28;;;;;;;17.9;11.55;;;;;;;1.15;74.28711;95294.95;;;;
2020/10/20 03:09:28;;;;;;;17.9;11.55;;;;;;;1.15;74.28711;95294.95;;;;
2020/10/20 03:10:29;;;;;;;18.7;11.4;;;;;;;1.11;74.35352;95285.69;;;;
2020/10/20 03:11:30;;;;;;;18.7;11.4;;;;;;;1.11;74.35352;95285.69;;;;
2020/10/20 03:12:30;;;;;;;18.7;11.4;;;;;;;1.11;74.35352;95285.69;;;;
2020/10/20 03:13:31;;;;;;;18.7;11.4;;;;;;;1.11;74.35352;95285.69;;;;
2020/10/20 03:14:31;;;;;;;18.7;11.4;;;;;;;1.11;74.35352;95285.69;;;;
2020/10/20 03:15:33;;;;;;;18.7;11.4;;;;;;;1.11;74.35352;95285.69;;;;
2020/10/20 03:16:33;;;;;;;18.7;11.4;;;;;;;1.11;74.35352;95285.69;;;;
2020/10/20 03:17:34;;;;;;;18.7;11.4;;;;;;;1.11;74.35352;95285.69;;;;
2020/10/20 03:18:35;;;;;;;18.7;11.4;;;;;;;1.11;74.35352;95285.69;;;;
2020/10/20 03:19:35;;;;;;;18.7;11.4;;;;;;;1.11;74.35352;95285.69;;;;
2020/10/20 03:20:36;;;;;;;19.6;13.4;;;;;;;0.99;74.5;95286.3;;;;
2020/10/20 03:21:36;;;;;;;19.6;13.4;;;;;;;0.99;74.5;95286.3;;;;
2020/10/20 03:22:37;;;;;;;19.6;13.4;;;;;;;0.99;74.5;95286.3;;;;
2020/10/20 03:23:37;;;;;;;19.6;13.4;;;;;;;0.99;74.5;95286.3;;;;
2020/10/20 03:24:38;;;;;;;19.6;13.4;;;;;;;0.99;74.5;95286.3;;;;
2020/10/20 03:25:38;;;;;;;19.6;13.4;;;;;;;0.99;74.5;95286.3;;;;
2020/10/20 03:26:39;;;;;;;19.6;13.4;;;;;;;0.99;74.5;95286.3;;;;
2020/10/20 03:27:39;;;;;;;19.6;13.4;;;;;;;0.99;74.5;95286.3;;;;
2020/10/20 03:28:40;;;;;;;19.6;13.4;;;;;;;0.99;74.5;95286.3;;;;
2020/10/20 03:29:40;;;;;;;19.6;13.4;;;;;;;0.99;74.5;95286.3;;;;
2020/10/20 03:30:41;;;;;;;19.6;13.4;;;;;;;0.99;74.5;95286.3;;;;
2020/10/20 03:31:41;;;;;;;21.55;10.75;;;;;;;0.94;75.05469;95288.62;;;;
2020/10/20 03:32:42;;;;;;;21.55;10.75;;;;;;;0.94;75.05469;95288.62;;;;
2020/10/20 03:33:43;;;;;;;21.55;10.75;;;;;;;0.94;75.05469;95288.62;;;;
2020/10/20 03:34:43;;;;;;;21.55;10.75;;;;;;;0.94;75.05469;95288.62;;;;
2020/10/20 03:35:44;;;;;;;21.55;10.75;;;;;;;0.94;75.05469;95288.62;;;;
2020/10/20 03:36:44;;;;;;;21.55;10.75;;;;;;;0.94;75.05469;95288.62;;;;
2020/10/20 03:37:45;;;;;;;21.55;10.75;;;;;;;0.94;75.05469;95288.62;;;;
2020/10/20 03:38:46;;;;;;;21.55;10.75;;;;;;;0.94;75.05469;95288.62;;;;
2020/10/20 03:39:46;;;;;;;21.55;10.75;;;;;;;0.94;75.05469;95288.62;;;;
2020/10/20 03:40:47;;;;;;;21.55;10.75;;;;;;;0.94;75.05469;95288.62;;;;
2020/10/20 03:41:47;;;;;;;17.75;10.75;;;;;;;0.76;75.16992;95286.76;;;;
2020/10/20 03:42:48;;;;;;;17.75;10.75;;;;;;;0.76;75.16992;95286.76;;;;
2020/10/20 03:43:51;;;;;;;17.75;10.75;;;;;;;0.76;75.16992;95286.76;;;;
2020/10/20 03:44:52;;;;;;;17.75;10.75;;;;;;;0.76;75.16992;95286.76;;;;
2020/10/20 03:45:54;;;;;;;17.75;10.75;;;;;;;0.76;75.16992;95286.76;;;;
2020/10/20 03:46:55;;;;;;;17.75;10.75;;;;;;;0.76;75.16992;95286.76;;;;
2020/10/20 03:47:58;;;;;;;17.75;10.75;;;;;;;0.76;75.16992;95286.76;;;;
2020/10/20 03:49:21;;;;;;;17.75;10.75;;;;;;;0.76;75.16992;95286.76;;;;
2020/10/20 03:50:21;;;;;;;17.75;10.75;;;;;;;0.76;75.16992;95286.76;;;;
2020/10/20 03:51:27;;;;;;;17.75;10.75;;;;;;;0.76;75.16992;95286.76;;;;
2020/10/20 03:52:29;;;;;;;17.4;10.95;;;;;;;0.69;75.21875;95279.17;;;;
2020/10/20 03:53:35;;;;;;;17.4;10.95;;;;;;;0.69;75.21875;95279.17;;;;
2020/10/20 03:54:35;;;;;;;17.4;10.95;;;;;;;0.69;75.21875;95279.17;;;;
2020/10/20 03:55:36;;;;;;;17.4;10.95;;;;;;;0.69;75.21875;95279.17;;;;
2020/10/20 03:56:37;;;;;;;17.4;10.95;;;;;;;0.69;75.21875;95279.17;;;;
2020/10/20 03:57:37;;;;;;;17.4;10.95;;;;;;;0.69;75.21875;95279.17;;;;
2020/10/20 03:58:37;;;;;;;17.4;10.95;;;;;;;0.69;75.21875;95279.17;;;;
2020/10/20 03:59:38;;;;;;;17.4;10.95;;;;;;;0.69;75.21875;95279.17;;;;
2020/10/20 04:00:39;;;;;;;17.4;10.95;;;;;;;0.69;75.21875;95279.17;;;;
2020/10/20 04:01:39;;;;;;;17.4;10.95;;;;;;;0.69;75.21875;95279.17;;;;
2020/10/20 04:02:47;;;;;;;17.4;10.95;;;;;;;0.69;75.21875;95279.17;;;;
2020/10/20 04:03:48;;;;;;;18.6;10.4;;;;;;;0.58;75.33691;95276.93;;;;
2020/10/20 04:04:51;;;;;;;18.6;10.4;;;;;;;0.58;75.33691;95276.93;;;;
2020/10/20 04:05:52;;;;;;;18.6;10.4;;;;;;;0.58;75.33691;95276.93;;;;
2020/10/20 04:06:52;;;;;;;18.6;10.4;;;;;;;0.58;75.33691;95276.93;;;;
2020/10/20 04:07:54;;;;;;;18.6;10.4;;;;;;;0.58;75.33691;95276.93;;;;
2020/10/20 04:08:55;;;;;;;18.6;10.4;;;;;;;0.58;75.33691;95276.93;;;;
2020/10/20 04:10:00;;;;;;;18.6;10.4;;;;;;;0.58;75.33691;95276.93;;;;
2020/10/20 04:11:06;;;;;;;18.6;10.4;;;;;;;0.58;75.33691;95276.93;;;;
2020/10/20 04:12:13;;;;;;;18.6;10.4;;;;;;;0.58;75.33691;95276.93;;;;
2020/10/20 04:13:15;;;;;;;18.6;10.4;;;;;;;0.58;75.33691;95276.93;;;;
2020/10/20 04:14:19;;;;;;;15.35;10.1;;;;;;;0.53;75.38086;95277.03;;;;
2020/10/20 04:15:26;;;;;;;15.35;10.1;;;;;;;0.53;75.38086;95277.03;;;;
2020/10/20 04:16:29;;;;;;;15.35;10.1;;;;;;;0.53;75.38086;95277.03;;;;
2020/10/20 04:17:38;;;;;;;15.35;10.1;;;;;;;0.53;75.38086;95277.03;;;;
2020/10/20 04:18:43;;;;;;;15.35;10.1;;;;;;;0.53;75.38086;95277.03;;;;
2020/10/20 04:19:46;;;;;;;15.35;10.1;;;;;;;0.53;75.38086;95277.03;;;;
2020/10/20 04:20:51;;;;;;;15.35;10.1;;;;;;;0.53;75.38086;95277.03;;;;
2020/10/20 04:21:59;;;;;;;15.35;10.1;;;;;;;0.53;75.38086;95277.03;;;;
2020/10/20 04:23:03;;;;;;;15.35;10.1;;;;;;;0.53;75.38086;95277.03;;;;
2020/10/20 04:24:05;;;;;;;15.35;10.1;;;;;;;0.53;75.38086;95277.03;;;;
2020/10/20 04:25:13;;;;;;;15.9;10.35;;;;;;;0.42;75.47559;95301.33;;;;
2020/10/20 04:26:15;;;;;;;15.9;10.35;;;;;;;0.42;75.47559;95301.33;;;;
2020/10/20 04:27:20;;;;;;;15.9;10.35;;;;;;;0.42;75.47559;95301.33;;;;
2020/10/20 04:28:27;;;;;;;15.9;10.35;;;;;;;0.42;75.47559;95301.33;;;;
2020/10/20 04:29:28;;;;;;;15.9;10.35;;;;;;;0.42;75.47559;95301.33;;;;
2020/10/20 04:30:33;;;;;;;15.9;10.35;;;;;;;0.42;75.47559;95301.33;;;;
2020/10/20 04:31:34;;;;;;;15.9;10.35;;;;;;;0.42;75.47559;95301.33;;;;
2020/10/20 04:32:35;;;;;;;15.9;10.35;;;;;;;0.42;75.47559;95301.33;;;;
2020/10/20 04:33:36;;;;;;;15.9;10.35;;;;;;;0.42;75.47559;95301.33;;;;
2020/10/20 04:34:37;;;;;;;15.9;10.35;;;;;;;0.42;75.47559;95301.33;;;;
2020/10/20 04:35:39;;;;;;;17.2;10.3;;;;;;;0.41;75.62012;95317.36;;;;
2020/10/20 04:36:43;;;;;;;17.2;10.3;;;;;;;0.41;75.62012;95317.36;;;;
2020/10/20 04:37:47;;;;;;;17.2;10.3;;;;;;;0.41;75.62012;95317.36;;;;
2020/10/20 04:38:49;;;;;;;17.2;10.3;;;;;;;0.41;75.62012;95317.36;;;;
2020/10/20 04:39:53;;;;;;;17.2;10.3;;;;;;;0.41;75.62012;95317.36;;;;
2020/10/20 04:40:54;;;;;;;17.2;10.3;;;;;;;0.41;75.62012;95317.36;;;;
2020/10/20 04:41:55;;;;;;;17.2;10.3;;;;;;;0.41;75.62012;95317.36;;;;
2020/10/20 04:42:59;;;;;;;17.2;10.3;;;;;;;0.41;75.62012;95317.36;;;;
2020/10/20 04:44:01;;;;;;;17.2;10.3;;;;;;;0.41;75.62012;95317.36;;;;
2020/10/20 04:45:03;;;;;;;17.2;10.3;;;;;;;0.41;75.62012;95317.36;;;;
2020/10/20 04:46:07;;;;;;;16.45;9.550001;;;;;;;0.31;75.84375;95327.76;;;;
2020/10/20 04:47:10;;;;;;;16.45;9.550001;;;;;;;0.31;75.84375;95327.76;;;;
2020/10/20 04:48:15;;;;;;;16.45;9.550001;;;;;;;0.31;75.84375;95327.76;;;;
2020/10/20 04:49:19;;;;;;;16.45;9.550001;;;;;;;0.31;75.84375;95327.76;;;;
2020/10/20 04:50:24;;;;;;;16.45;9.550001;;;;;;;0.31;75.84375;95327.76;;;;
2020/10/20 04:51:29;;;;;;;16.45;9.550001;;;;;;;0.31;75.84375;95327.76;;;;
2020/10/20 04:52:50;;;;;;;16.45;9.550001;;;;;;;0.31;75.84375;95327.76;;;;
2020/10/20 04:53:51;;;;;;;16.45;9.550001;;;;;;;0.31;75.84375;95327.76;;;;
2020/10/20 04:55:01;;;;;;;16.45;9.550001;;;;;;;0.31;75.84375;95327.76;;;;
2020/10/20 04:56:11;;;;;;;16.45;9.550001;;;;;;;0.31;75.84375;95327.76;;;;
2020/10/20 04:57:16;;;;;;;13.5;8.349999;;;;;;;0.29;75.85938;95315.69;;;;
2020/10/20 04:58:23;;;;;;;13.5;8.349999;;;;;;;0.29;75.85938;95315.69;;;;
2020/10/20 04:59:25;;;;;;;13.5;8.349999;;;;;;;0.29;75.85938;95315.69;;;;
2020/10/20 05:00:26;;;;;;;13.5;8.349999;;;;;;;0.29;75.85938;95315.69;;;;
2020/10/20 05:01:30;;;;;;;13.5;8.349999;;;;;;;0.29;75.85938;95315.69;;;;
2020/10/20 05:02:34;;;;;;;13.5;8.349999;;;;;;;0.29;75.85938;95315.69;;;;
2020/10/20 05:07:04;;;;;;;11.4;7.349999;;;;;;;0.18;75.91406;95299.61;;;;
2020/10/20 05:12:22;;;;;;;11.4;7.349999;;;;;;;0.18;75.91406;95299.61;;;;
2020/10/20 05:14:12;;;;;;;11.4;7.349999;;;;;;;0.18;75.91406;95299.61;;;;
2020/10/20 05:15:18;;;;;;;11.4;7.349999;;;;;;;0.18;75.91406;95299.61;;;;
2020/10/20 05:16:28;;;;;;;11.4;7.349999;;;;;;;0.18;75.91406;95299.61;;;;
2020/10/20 05:17:29;;;;;;;11.4;7.349999;;;;;;;0.18;75.91406;95299.61;;;;
2020/10/20 05:18:48;;;;;;;12.95;8.449998;;;;;;;0.18;76.02832;95288.08;;;;
2020/10/20 05:20:00;;;;;;;12.95;8.449998;;;;;;;0.18;76.02832;95288.08;;;;
2020/10/20 05:21:08;;;;;;;12.95;8.449998;;;;;;;0.18;76.02832;95288.08;;;;
2020/10/20 05:22:19;;;;;;;12.95;8.449998;;;;;;;0.18;76.02832;95288.08;;;;
2020/10/20 05:23:27;;;;;;;12.95;8.449998;;;;;;;0.18;76.02832;95288.08;;;;
2020/10/20 05:24:34;;;;;;;12.95;8.449998;;;;;;;0.18;76.02832;95288.08;;;;
2020/10/20 05:25:37;;;;;;;12.95;8.449998;;;;;;;0.18;76.02832;95288.08;;;;
2020/10/20 05:26:38;;;;;;;12.95;8.449998;;;;;;;0.18;76.02832;95288.08;;;;
2020/10/20 05:27:41;;;;;;;12.95;8.449998;;;;;;;0.18;76.02832;95288.08;;;;
2020/10/20 05:28:43;;;;;;;12.65;8.449999;;;;;;;0.14;76.01172;95306.7;;;;
2020/10/20 05:29:45;;;;;;;12.65;8.449999;;;;;;;0.14;76.01172;95306.7;;;;
2020/10/20 05:30:59;;;;;;;12.65;8.449999;;;;;;;0.14;76.01172;95306.7;;;;
2020/10/20 05:32:15;;;;;;;12.65;8.449999;;;;;;;0.14;76.01172;95306.7;;;;
2020/10/20 05:33:19;;;;;;;12.65;8.449999;;;;;;;0.14;76.01172;95306.7;;;;
2020/10/20 05:34:54;;;;;;;12.65;8.449999;;;;;;;0.14;76.01172;95306.7;;;;
2020/10/20 05:35:54;;;;;;;12.65;8.449999;;;;;;;0.14;76.01172;95306.7;;;;
2020/10/20 05:36:55;;;;;;;12.65;8.449999;;;;;;;0.14;76.01172;95306.7;;;;
2020/10/20 05:37:57;;;;;;;12.65;8.449999;;;;;;;0.14;76.01172;95306.7;;;;
2020/10/20 05:39:00;;;;;;;11;7.55;;;;;;;0.22;76.24414;95329.71;;;;
2020/10/20 05:40:00;;;;;;;11;7.55;;;;;;;0.22;76.24414;95329.71;;;;
2020/10/20 05:41:19;;;;;;;11;7.55;;;;;;;0.22;76.24414;95329.71;;;;
2020/10/20 05:42:26;;;;;;;11;7.55;;;;;;;0.22;76.24414;95329.71;;;;
2020/10/20 05:43:37;;;;;;;11;7.55;;;;;;;0.22;76.24414;95329.71;;;;
2020/10/20 05:44:40;;;;;;;11;7.55;;;;;;;0.22;76.24414;95329.71;;;;
2020/10/20 05:45:41;;;;;;;11;7.55;;;;;;;0.22;76.24414;95329.71;;;;
2020/10/20 05:47:00;;;;;;;11;7.55;;;;;;;0.22;76.24414;95329.71;;;;
2020/10/20 05:48:28;;;;;;;11;7.55;;;;;;;0.22;76.24414;95329.71;;;;
2020/10/20 05:49:35;;;;;;;12.25;7.500001;;;;;;;0.25;76.13477;95317.86;;;;
2020/10/20 05:50:35;;;;;;;12.25;7.500001;;;;;;;0.25;76.13477;95317.86;;;;
2020/10/20 05:51:50;;;;;;;12.25;7.500001;;;;;;;0.25;76.13477;95317.86;;;;
2020/10/20 05:52:51;;;;;;;12.25;7.500001;;;;;;;0.25;76.13477;95317.86;;;;
2020/10/20 05:53:53;;;;;;;12.25;7.500001;;;;;;;0.25;76.13477;95317.86;;;;
2020/10/20 05:54:54;;;;;;;12.25;7.500001;;;;;;;0.25;76.13477;95317.86;;;;
2020/10/20 05:55:59;;;;;;;12.25;7.500001;;;;;;;0.25;76.13477;95317.86;;;;
2020/10/20 05:56:59;;;;;;;12.25;7.500001;;;;;;;0.25;76.13477;95317.86;;;;
2020/10/20 05:58:13;;;;;;;12.25;7.500001;;;;;;;0.25;76.13477;95317.86;;;;
2020/10/20 05:59:14;;;;;;;12.25;7.500001;;;;;;;0.25;76.13477;95317.86;;;;
2020/10/20 06:00:26;;;;;;;10.75;7.4;;;;;;;0.41;76.24609;95321.77;;;;